Terminal Aerodrome Forecast
Issued by NWS

Home | Current Version | Previous Version | Text Only | Print | Product List | Glossary On
Versions: 1 2 3 4 5 6 7 8 9 10 11 12 13
000
FTUS45 KTFX 182335
TAFCTB
TAF
KCTB 182335Z 1900/1924 25020G30KT P6SM SCT180
     FM191100 34012G22KT P6SM SCT150
     FM191800 25011G19KT P6SM FEW080 SCT200=

USA.gov is the U.S. government's official web portal to all federal, state and local government web resources and services.